createdAt,value
2017-02-04T00:01:07.460Z,978.19
2017-02-04T00:02:18.144Z,978.23
2017-02-04T00:03:28.820Z,978.18
2017-02-04T00:04:39.091Z,978.2
2017-02-04T00:05:49.766Z,978.21
2017-02-04T00:07:00.472Z,978.23
2017-02-04T00:08:11.150Z,978.21
2017-02-04T00:09:21.825Z,978.18
2017-02-04T00:10:32.498Z,978.18
2017-02-04T00:11:43.167Z,978.16
2017-02-04T00:12:53.844Z,978.15
2017-02-04T00:14:04.520Z,978.12
2017-02-04T00:15:15.188Z,978.11
2017-02-04T00:16:25.860Z,978.07
2017-02-04T00:17:36.142Z,978.11
2017-02-04T00:18:46.813Z,978.06
2017-02-04T00:19:57.488Z,978.06
2017-02-04T00:21:07.763Z,978.07
2017-02-04T00:22:18.438Z,978.08
2017-02-04T00:23:29.122Z,978.08
2017-02-04T00:24:39.000Z,978.07
2017-02-04T00:25:49.676Z,978.1
2017-02-04T00:27:00.350Z,978.09
2017-02-04T00:28:11.024Z,978.09
2017-02-04T00:29:21.700Z,978.09
2017-02-04T00:30:32.409Z,978.09
2017-02-04T00:31:42.691Z,978.05
2017-02-04T00:32:52.967Z,978.04
2017-02-04T00:34:03.645Z,978.05
2017-02-04T00:35:13.923Z,978.05
2017-02-04T00:36:24.600Z,978.06
2017-02-04T00:37:34.891Z,978.03
2017-02-04T00:38:45.563Z,978.02
2017-02-04T00:39:56.239Z,978.01
2017-02-04T00:41:06.909Z,978.02
2017-02-04T00:42:17.586Z,977.99
2017-02-04T00:43:28.261Z,977.98
2017-02-04T00:44:37.739Z,978
2017-02-04T00:45:48.420Z,978.01
2017-02-04T00:46:59.092Z,978
2017-02-04T00:48:09.375Z,977.98
2017-02-04T00:49:20.055Z,978.01
2017-02-04T00:50:29.944Z,978.01
2017-02-04T00:51:40.614Z,978.01
2017-02-04T00:52:51.291Z,977.97
2017-02-04T00:54:01.571Z,978
2017-02-04T00:55:11.853Z,977.99
2017-02-04T00:56:22.520Z,978.01
2017-02-04T00:57:33.195Z,978.02
2017-02-04T00:58:43.869Z,977.98
2017-02-04T00:59:54.551Z,977.97
2017-02-04T01:01:05.226Z,977.96
2017-02-04T01:02:15.904Z,978.01
2017-02-04T01:03:26.579Z,977.99
2017-02-04T01:04:36.896Z,978
2017-02-04T01:05:47.178Z,978.02
2017-02-04T01:06:57.862Z,977.98
2017-02-04T01:08:08.538Z,978.02
2017-02-04T01:09:18.812Z,978.01
2017-02-04T01:10:29.490Z,977.98
2017-02-04T01:11:40.167Z,978.01
2017-02-04T01:12:50.846Z,977.97
2017-02-04T01:14:01.527Z,977.99
2017-02-04T01:15:12.200Z,978
2017-02-04T01:16:22.885Z,977.97
2017-02-04T01:17:33.564Z,977.98
2017-02-04T01:18:44.238Z,977.94
2017-02-04T01:19:54.909Z,977.95
2017-02-04T01:21:05.582Z,977.95
2017-02-04T01:22:15.862Z,977.93
2017-02-04T01:23:26.538Z,977.92
2017-02-04T01:24:37.215Z,977.94
2017-02-04T01:25:47.892Z,977.93
2017-02-04T01:26:58.573Z,977.94
2017-02-04T01:28:09.248Z,977.95
2017-02-04T01:29:19.919Z,977.9
2017-02-04T01:30:30.596Z,977.96
2017-02-04T01:31:40.868Z,977.97
2017-02-04T01:32:51.537Z,977.93
2017-02-04T01:34:02.210Z,977.93
2017-02-04T01:35:12.886Z,977.91
2017-02-04T01:36:23.567Z,977.95
2017-02-04T01:37:34.239Z,977.93
2017-02-04T01:38:44.915Z,977.97
2017-02-04T01:39:55.586Z,977.97
2017-02-04T01:41:05.878Z,977.95
2017-02-04T01:42:16.556Z,977.99
2017-02-04T01:43:27.228Z,978
2017-02-04T01:44:37.898Z,977.98
2017-02-04T01:45:48.570Z,977.97
2017-02-04T01:46:59.293Z,977.99
2017-02-04T01:48:09.575Z,978
2017-02-04T01:49:20.246Z,977.98
2017-02-04T01:50:30.919Z,977.94
2017-02-04T01:51:41.600Z,977.93
2017-02-04T01:52:52.272Z,977.89
2017-02-04T01:54:02.951Z,977.91
2017-02-04T01:55:13.223Z,977.84
2017-02-04T01:56:23.896Z,977.89
2017-02-04T01:57:34.569Z,977.88
2017-02-04T01:58:45.238Z,977.86
2017-02-04T01:59:55.517Z,977.86
2017-02-04T02:01:06.185Z,977.87
2017-02-04T02:02:16.855Z,977.87
2017-02-04T02:03:27.532Z,977.84
2017-02-04T02:04:38.205Z,977.87
2017-02-04T02:05:48.492Z,977.88
2017-02-04T02:06:59.163Z,977.86
2017-02-04T02:08:09.840Z,977.86
2017-02-04T02:09:20.513Z,977.87
2017-02-04T02:10:31.188Z,977.86
2017-02-04T02:11:41.858Z,977.88
2017-02-04T02:12:52.533Z,977.88
2017-02-04T02:14:03.228Z,977.9
2017-02-04T02:15:13.899Z,977.92
2017-02-04T02:16:24.578Z,977.88
2017-02-04T02:17:34.856Z,977.88
2017-02-04T02:18:45.525Z,977.89
2017-02-04T02:19:56.195Z,977.89
2017-02-04T02:21:06.870Z,977.92
2017-02-04T02:22:17.547Z,977.88
2017-02-04T02:23:28.230Z,977.87
2017-02-04T02:24:38.905Z,977.89
2017-02-04T02:25:49.575Z,977.83
2017-02-04T02:27:00.264Z,977.84
2017-02-04T02:28:10.935Z,977.8
2017-02-04T02:29:21.611Z,977.81
2017-02-04T02:30:31.887Z,977.84
2017-02-04T02:31:42.562Z,977.8
2017-02-04T02:32:53.251Z,977.8
2017-02-04T02:34:03.931Z,977.8
2017-02-04T02:35:14.610Z,977.8
2017-02-04T02:36:25.289Z,977.79
2017-02-04T02:37:36.319Z,977.84
2017-02-04T02:38:46.995Z,977.8
2017-02-04T02:39:57.666Z,977.81
2017-02-04T02:41:08.335Z,977.81
2017-02-04T02:42:19.008Z,977.79
2017-02-04T02:43:29.687Z,977.76
2017-02-04T02:44:39.956Z,977.76
2017-02-04T02:45:50.629Z,977.75
2017-02-04T02:47:01.305Z,977.74
2017-02-04T02:48:11.978Z,977.73
2017-02-04T02:49:22.686Z,977.74
2017-02-04T02:50:33.362Z,977.71
2017-02-04T02:51:44.036Z,977.67
2017-02-04T02:52:54.715Z,977.68
2017-02-04T02:54:05.391Z,977.68
2017-02-04T02:55:16.065Z,977.68
2017-02-04T02:56:26.740Z,977.69
2017-02-04T02:57:37.416Z,977.74
2017-02-04T02:58:48.086Z,977.72
2017-02-04T02:59:58.760Z,977.7
2017-02-04T03:01:09.035Z,977.71
2017-02-04T03:02:19.706Z,977.71
2017-02-04T03:03:30.380Z,977.71
2017-02-04T03:04:41.051Z,977.72
2017-02-04T03:05:51.721Z,977.73
2017-02-04T03:07:02.394Z,977.74
2017-02-04T03:08:12.670Z,977.74
2017-02-04T03:09:23.381Z,977.72
2017-02-04T03:10:34.054Z,977.77
2017-02-04T03:11:44.732Z,977.76
2017-02-04T03:12:55.021Z,977.71
2017-02-04T03:14:05.693Z,977.75
2017-02-04T03:15:16.367Z,977.7
2017-02-04T03:16:27.040Z,977.73
2017-02-04T03:17:37.710Z,977.68
2017-02-04T03:18:48.389Z,977.68
2017-02-04T03:19:58.667Z,977.67
2017-02-04T03:21:08.548Z,977.68
2017-02-04T03:22:19.220Z,977.67
2017-02-04T03:23:29.893Z,977.67
2017-02-04T03:24:40.165Z,977.72
2017-02-04T03:25:50.048Z,977.67
2017-02-04T03:27:00.722Z,977.68
2017-02-04T03:28:10.996Z,977.67
2017-02-04T03:29:21.669Z,977.67
2017-02-04T03:30:32.342Z,977.64
2017-02-04T03:31:43.017Z,977.66
2017-02-04T03:32:53.683Z,977.64
2017-02-04T03:34:04.361Z,977.64
2017-02-04T03:35:15.042Z,977.61
2017-02-04T03:36:25.812Z,977.63
2017-02-04T03:37:36.482Z,977.61
2017-02-04T03:38:47.157Z,977.62
2017-02-04T03:39:57.835Z,977.62
2017-02-04T03:41:07.316Z,977.59
2017-02-04T03:42:17.989Z,977.57
2017-02-04T03:43:28.660Z,977.57
2017-02-04T03:44:39.337Z,977.57
2017-02-04T03:45:50.015Z,977.58
2017-02-04T03:47:00.683Z,977.62
2017-02-04T03:48:11.354Z,977.59
2017-02-04T03:49:22.033Z,977.61
2017-02-04T03:50:32.705Z,977.65
2017-02-04T03:51:43.386Z,977.6
2017-02-04T03:52:54.057Z,977.64
2017-02-04T03:54:04.726Z,977.6
2017-02-04T03:55:15.399Z,977.62
2017-02-04T03:56:26.071Z,977.62
2017-02-04T03:57:36.737Z,977.61
2017-02-04T03:58:47.414Z,977.61
2017-02-04T03:59:58.090Z,977.64
2017-02-04T04:01:07.966Z,977.64
2017-02-04T04:02:18.647Z,977.64
2017-02-04T04:03:29.326Z,977.64
2017-02-04T04:04:39.999Z,977.62
2017-02-04T04:05:50.685Z,977.6
2017-02-04T04:07:01.358Z,977.63
2017-02-04T04:08:11.637Z,977.65
2017-02-04T04:09:22.307Z,977.63
2017-02-04T04:10:32.984Z,977.59
2017-02-04T04:11:43.661Z,977.6
2017-02-04T04:12:53.948Z,977.58
2017-02-04T04:14:04.620Z,977.63
2017-02-04T04:15:15.292Z,977.59
2017-02-04T04:16:25.577Z,977.63
2017-02-04T04:17:36.249Z,977.58
2017-02-04T04:18:46.130Z,977.6
2017-02-04T04:19:56.802Z,977.6
2017-02-04T04:21:07.079Z,977.6
2017-02-04T04:22:17.754Z,977.65
2017-02-04T04:23:28.428Z,977.67
2017-02-04T04:24:38.704Z,977.63
2017-02-04T04:25:48.979Z,977.65
2017-02-04T04:26:59.657Z,977.65
2017-02-04T04:28:10.329Z,977.62
2017-02-04T04:29:21.003Z,977.69
2017-02-04T04:30:31.673Z,977.63
2017-02-04T04:31:42.352Z,977.66
2017-02-04T04:32:52.266Z,977.64
2017-02-04T04:34:02.950Z,977.63
2017-02-04T04:35:12.829Z,977.64
2017-02-04T04:36:23.510Z,977.59
2017-02-04T04:37:34.186Z,977.61
2017-02-04T04:38:44.858Z,977.61
2017-02-04T04:39:55.531Z,977.58
2017-02-04T04:41:05.415Z,977.61
2017-02-04T04:42:16.086Z,977.61
2017-02-04T04:43:26.760Z,977.64
2017-02-04T04:44:37.435Z,977.62
2017-02-04T04:45:47.711Z,977.61
2017-02-04T04:46:58.383Z,977.6
2017-02-04T04:48:08.258Z,977.61
2017-02-04T04:49:18.537Z,977.62
2017-02-04T04:50:29.207Z,977.59
2017-02-04T04:51:39.882Z,977.6
2017-02-04T04:52:50.559Z,977.6
2017-02-04T04:54:00.836Z,977.58
2017-02-04T04:55:11.510Z,977.58
2017-02-04T04:56:22.183Z,977.6
2017-02-04T04:57:32.858Z,977.61
2017-02-04T04:58:43.532Z,977.62
2017-02-04T04:59:54.204Z,977.62
2017-02-04T05:01:04.875Z,977.61
2017-02-04T05:02:15.551Z,977.61
2017-02-04T05:03:25.835Z,977.61
2017-02-04T05:04:36.513Z,977.59
2017-02-04T05:05:47.185Z,977.56
2017-02-04T05:06:57.901Z,977.56
2017-02-04T05:08:08.176Z,977.58
2017-02-04T05:09:18.451Z,977.58
2017-02-04T05:10:29.121Z,977.59
2017-02-04T05:11:39.790Z,977.56
2017-02-04T05:12:50.459Z,977.58
2017-02-04T05:14:01.136Z,977.55
2017-02-04T05:15:11.812Z,977.58
2017-02-04T05:16:22.525Z,977.59
2017-02-04T05:17:32.804Z,977.57
2017-02-04T05:18:43.479Z,977.61
2017-02-04T05:19:54.151Z,977.56
2017-02-04T05:21:04.823Z,977.54
2017-02-04T05:22:15.492Z,977.55
2017-02-04T05:23:26.171Z,977.57
2017-02-04T05:24:36.845Z,977.56
2017-02-04T05:25:47.118Z,977.54
2017-02-04T05:26:57.391Z,977.56
2017-02-04T05:28:08.070Z,977.55
2017-02-04T05:29:18.742Z,977.55
2017-02-04T05:30:29.420Z,977.53
2017-02-04T05:31:40.091Z,977.52
2017-02-04T05:32:50.374Z,977.51
2017-02-04T05:34:01.051Z,977.52
2017-02-04T05:35:10.934Z,977.49
2017-02-04T05:36:21.604Z,977.53
2017-02-04T05:37:32.284Z,977.56
2017-02-04T05:38:42.954Z,977.54
2017-02-04T05:39:53.620Z,977.51
2017-02-04T05:41:04.293Z,977.54
2017-02-04T05:42:14.967Z,977.52
2017-02-04T05:43:25.645Z,977.53
2017-02-04T05:44:36.315Z,977.54
2017-02-04T05:45:46.982Z,977.5
2017-02-04T05:46:57.656Z,977.57
2017-02-04T05:48:07.938Z,977.57
2017-02-04T05:49:18.608Z,977.56
2017-02-04T05:50:29.278Z,977.54
2017-02-04T05:51:39.952Z,977.54
2017-02-04T05:52:50.628Z,977.54
2017-02-04T05:54:01.305Z,977.58
2017-02-04T05:55:11.973Z,977.56
2017-02-04T05:56:22.655Z,977.57
2017-02-04T05:57:33.333Z,977.57
2017-02-04T05:58:44.009Z,977.6
2017-02-04T05:59:54.287Z,977.57
2017-02-04T06:01:04.959Z,977.6
2017-02-04T06:02:15.629Z,977.61
2017-02-04T06:03:26.315Z,977.67
2017-02-04T06:04:36.591Z,977.68
2017-02-04T06:05:47.263Z,977.69
2017-02-04T06:06:57.952Z,977.64
2017-02-04T06:08:08.229Z,977.66
2017-02-04T06:09:18.899Z,977.71
2017-02-04T06:10:29.570Z,977.66
2017-02-04T06:11:40.242Z,977.68
2017-02-04T06:12:50.517Z,977.67
2017-02-04T06:14:01.192Z,977.65
2017-02-04T06:15:11.112Z,977.66
2017-02-04T06:16:21.386Z,977.69
2017-02-04T06:17:32.054Z,977.63
2017-02-04T06:18:42.727Z,977.66
2017-02-04T06:19:53.403Z,977.58
2017-02-04T06:21:03.677Z,977.62
2017-02-04T06:22:14.391Z,977.59
2017-02-04T06:23:25.067Z,977.59
2017-02-04T06:24:35.736Z,977.61
2017-02-04T06:25:46.021Z,977.58
2017-02-04T06:26:56.688Z,977.61
2017-02-04T06:28:07.360Z,977.59
2017-02-04T06:29:17.636Z,977.6
2017-02-04T06:30:28.309Z,977.6
2017-02-04T06:31:38.982Z,977.6
2017-02-04T06:32:49.652Z,977.57
2017-02-04T06:33:59.926Z,977.6
2017-02-04T06:35:10.601Z,977.61
2017-02-04T06:36:21.277Z,977.6
2017-02-04T06:37:31.949Z,977.6
2017-02-04T06:38:42.618Z,977.6
2017-02-04T06:39:53.297Z,977.63
2017-02-04T06:41:03.571Z,977.62
2017-02-04T06:42:14.245Z,977.64
2017-02-04T06:43:24.923Z,977.63
2017-02-04T06:44:35.205Z,977.63
2017-02-04T06:45:45.884Z,977.65
2017-02-04T06:46:56.574Z,977.65
2017-02-04T06:48:07.245Z,977.64
2017-02-04T06:49:17.924Z,977.62
2017-02-04T06:50:28.597Z,977.65
2017-02-04T06:51:39.266Z,977.63
2017-02-04T06:52:49.942Z,977.67
2017-02-04T06:54:00.619Z,977.66
2017-02-04T06:55:10.892Z,977.66
2017-02-04T06:56:21.568Z,977.61
2017-02-04T06:57:32.238Z,977.63
2017-02-04T06:58:42.911Z,977.61
2017-02-04T06:59:53.582Z,977.6
2017-02-04T07:01:04.254Z,977.6
2017-02-04T07:02:14.935Z,977.63
2017-02-04T07:03:25.609Z,977.61
2017-02-04T07:04:36.290Z,977.61
2017-02-04T07:05:46.962Z,977.61
2017-02-04T07:06:57.670Z,977.58
2017-02-04T07:08:07.937Z,977.62
2017-02-04T07:09:18.216Z,977.6
2017-02-04T07:10:28.888Z,977.62
2017-02-04T07:11:39.563Z,977.64
2017-02-04T07:12:50.231Z,977.63
2017-02-04T07:14:00.903Z,977.6
2017-02-04T07:15:11.612Z,977.58
2017-02-04T07:16:22.284Z,977.58
2017-02-04T07:17:32.957Z,977.55
2017-02-04T07:18:43.683Z,977.57
2017-02-04T07:19:54.360Z,977.55
2017-02-04T07:21:05.042Z,977.55
2017-02-04T07:22:15.717Z,977.57
2017-02-04T07:23:26.393Z,977.53
2017-02-04T07:24:37.062Z,977.53
2017-02-04T07:25:47.732Z,977.54
2017-02-04T07:26:58.005Z,977.61
2017-02-04T07:28:08.282Z,977.62
2017-02-04T07:29:18.552Z,977.61
2017-02-04T07:30:28.831Z,977.61
2017-02-04T07:31:39.511Z,977.65
2017-02-04T07:32:50.182Z,977.62
2017-02-04T07:34:00.852Z,977.65
2017-02-04T07:35:11.127Z,977.66
2017-02-04T07:36:21.863Z,977.66
2017-02-04T07:37:32.142Z,977.64
2017-02-04T07:38:42.815Z,977.63
2017-02-04T07:39:53.490Z,977.65
2017-02-04T07:41:03.366Z,977.66
2017-02-04T07:42:14.034Z,977.63
2017-02-04T07:43:24.707Z,977.7
2017-02-04T07:44:35.376Z,977.67
2017-02-04T07:45:46.059Z,977.68
2017-02-04T07:46:56.731Z,977.65
2017-02-04T07:48:06.605Z,977.67
2017-02-04T07:49:16.923Z,977.65
2017-02-04T07:50:27.590Z,977.64
2017-02-04T07:51:37.873Z,977.62
2017-02-04T07:52:48.545Z,977.67
2017-02-04T07:53:59.239Z,977.72
2017-02-04T07:55:09.918Z,977.68
2017-02-04T07:56:20.635Z,977.65
2017-02-04T07:57:31.308Z,977.66
2017-02-04T07:58:41.980Z,977.67
2017-02-04T07:59:52.655Z,977.67
2017-02-04T08:01:03.336Z,977.74
2017-02-04T08:02:14.010Z,977.74
2017-02-04T08:03:24.681Z,977.73
2017-02-04T08:04:35.356Z,977.75
2017-02-04T08:05:46.030Z,977.74
2017-02-04T08:06:56.739Z,977.73
2017-02-04T08:08:07.410Z,977.74
2017-02-04T08:09:18.085Z,977.76
2017-02-04T08:10:28.754Z,977.75
2017-02-04T08:11:39.029Z,977.75
2017-02-04T08:12:49.702Z,977.72
2017-02-04T08:14:00.386Z,977.74
2017-02-04T08:15:10.265Z,977.73
2017-02-04T08:16:20.538Z,977.73
2017-02-04T08:17:31.213Z,977.76
2017-02-04T08:18:41.888Z,977.76
2017-02-04T08:19:52.562Z,977.79
2017-02-04T08:21:02.843Z,977.81
2017-02-04T08:22:13.110Z,977.76
2017-02-04T08:23:23.824Z,977.75
2017-02-04T08:24:34.497Z,977.7
2017-02-04T08:25:44.772Z,977.71
2017-02-04T08:26:55.446Z,977.74
2017-02-04T08:28:05.724Z,977.73
2017-02-04T08:29:16.397Z,977.72
2017-02-04T08:30:27.068Z,977.76
2017-02-04T08:31:37.776Z,977.76
2017-02-04T08:32:48.447Z,977.73
2017-02-04T08:33:59.120Z,977.75
2017-02-04T08:35:09.799Z,977.73
2017-02-04T08:36:20.468Z,977.72
2017-02-04T08:37:31.145Z,977.77
2017-02-04T08:38:41.819Z,977.75
2017-02-04T08:39:52.493Z,977.8
2017-02-04T08:41:03.162Z,977.81
2017-02-04T08:42:13.841Z,977.85
2017-02-04T08:43:24.510Z,977.82
2017-02-04T08:44:35.177Z,977.84
2017-02-04T08:45:45.852Z,977.85
2017-02-04T08:46:56.530Z,977.82
2017-02-04T08:48:07.234Z,977.82
2017-02-04T08:49:17.903Z,977.83
2017-02-04T08:50:28.575Z,977.88
2017-02-04T08:51:39.251Z,977.84
2017-02-04T08:52:49.919Z,977.86
2017-02-04T08:54:00.595Z,977.9
2017-02-04T08:55:11.267Z,977.89
2017-02-04T08:56:21.938Z,977.95
2017-02-04T08:57:32.617Z,977.87
2017-02-04T08:58:43.289Z,977.91
2017-02-04T08:59:53.965Z,977.91
2017-02-04T09:01:04.641Z,977.91
2017-02-04T09:02:15.321Z,977.93
2017-02-04T09:03:25.994Z,977.96
2017-02-04T09:04:36.668Z,977.96
2017-02-04T09:05:47.375Z,977.98
2017-02-04T09:06:58.044Z,978
2017-02-04T09:08:08.717Z,977.99
2017-02-04T09:09:19.387Z,978
2017-02-04T09:10:30.062Z,978.01
2017-02-04T09:11:40.982Z,978.03
2017-02-04T09:12:51.653Z,978.01
2017-02-04T09:14:02.320Z,978.03
2017-02-04T09:15:12.598Z,978.07
2017-02-04T09:16:23.269Z,978.03
2017-02-04T09:17:33.937Z,978.02
2017-02-04T09:18:44.610Z,978.05
2017-02-04T09:19:55.285Z,978.04
2017-02-04T09:21:05.557Z,978.03
2017-02-04T09:22:16.240Z,978.08
2017-02-04T09:23:26.911Z,978.06
2017-02-04T09:24:37.583Z,978.06
2017-02-04T09:25:48.261Z,978.06
2017-02-04T09:26:58.934Z,978.06
2017-02-04T09:28:09.213Z,978.05
2017-02-04T09:29:19.886Z,978.07
2017-02-04T09:30:30.555Z,978.12
2017-02-04T09:31:41.239Z,978.12
2017-02-04T09:32:51.912Z,978.12
2017-02-04T09:34:02.594Z,978.14
2017-02-04T09:35:12.867Z,978.16
2017-02-04T09:36:23.537Z,978.19
2017-02-04T09:37:34.222Z,978.22
2017-02-04T09:38:44.893Z,978.23
2017-02-04T09:39:55.561Z,978.22
2017-02-04T09:41:05.834Z,978.25
2017-02-04T09:42:16.504Z,978.21
2017-02-04T09:43:26.774Z,978.19
2017-02-04T09:44:37.447Z,978.16
2017-02-04T09:45:48.122Z,978.14
2017-02-04T09:46:58.801Z,978.19
2017-02-04T09:48:09.475Z,978.15
2017-02-04T09:49:19.750Z,978.2
2017-02-04T09:50:30.426Z,978.09
2017-02-04T09:51:40.701Z,978.13
2017-02-04T09:52:51.376Z,978.1
2017-02-04T09:54:02.050Z,978.08
2017-02-04T09:55:12.754Z,978.06
2017-02-04T09:56:23.427Z,978.09
2017-02-04T09:57:33.700Z,978.1
2017-02-04T09:58:43.978Z,978.11
2017-02-04T09:59:54.656Z,978.09
2017-02-04T10:01:04.929Z,978.07
2017-02-04T10:02:15.206Z,978.06
2017-02-04T10:03:25.877Z,978.07
2017-02-04T10:04:36.558Z,978.02
2017-02-04T10:05:47.230Z,978.04
2017-02-04T10:06:57.512Z,978
2017-02-04T10:08:07.785Z,978.03
2017-02-04T10:09:17.672Z,978.04
2017-02-04T10:10:28.350Z,978.05
2017-02-04T10:11:38.630Z,978.09
2017-02-04T10:12:48.908Z,978.05
2017-02-04T10:13:59.189Z,978.04
2017-02-04T10:15:09.865Z,978.07
2017-02-04T10:16:20.540Z,978.05
2017-02-04T10:17:31.211Z,978.04
2017-02-04T10:18:41.889Z,978.04
2017-02-04T10:19:51.773Z,977.99
2017-02-04T10:21:02.444Z,978.07
2017-02-04T10:22:12.721Z,978.04
2017-02-04T10:23:23.394Z,978.02
2017-02-04T10:24:34.066Z,978.04
2017-02-04T10:25:44.737Z,978.03
2017-02-04T10:26:55.413Z,978.11
2017-02-04T10:28:06.088Z,978.08
2017-02-04T10:29:16.368Z,978.1
2017-02-04T10:30:27.042Z,978.07
2017-02-04T10:31:37.751Z,978.1
2017-02-04T10:32:48.423Z,978.14
2017-02-04T10:33:59.095Z,978.11
2017-02-04T10:35:09.769Z,978.15
2017-02-04T10:36:20.453Z,978.13
2017-02-04T10:37:30.733Z,978.16
2017-02-04T10:38:41.404Z,978.14
2017-02-04T10:39:52.080Z,978.17
2017-02-04T10:41:02.365Z,978.19
2017-02-04T10:42:13.043Z,978.18
2017-02-04T10:43:23.718Z,978.16
2017-02-04T10:44:34.391Z,978.18
2017-02-04T10:45:45.063Z,978.16
2017-02-04T10:46:55.735Z,978.18
2017-02-04T10:48:06.412Z,978.16
2017-02-04T10:49:17.083Z,978.18
2017-02-04T10:50:27.758Z,978.14
2017-02-04T10:51:38.434Z,978.14
2017-02-04T10:52:49.109Z,978.19
2017-02-04T10:53:59.785Z,978.16
2017-02-04T10:55:10.459Z,978.17
2017-02-04T10:56:21.133Z,978.17
2017-02-04T10:57:31.845Z,978.19
2017-02-04T10:58:42.530Z,978.2
2017-02-04T10:59:53.201Z,978.18
2017-02-04T11:01:03.878Z,978.13
2017-02-04T11:02:14.155Z,978.09
2017-02-04T11:03:24.829Z,978.1
2017-02-04T11:04:35.506Z,978.14
2017-02-04T11:05:46.179Z,978.12
2017-02-04T11:06:56.861Z,978.1
2017-02-04T11:08:07.578Z,978.13
2017-02-04T11:09:18.261Z,978.11
2017-02-04T11:10:28.940Z,978.11
2017-02-04T11:11:39.620Z,978.08
2017-02-04T11:12:49.897Z,978.07
2017-02-04T11:14:00.174Z,978.1
2017-02-04T11:15:10.852Z,978.12
2017-02-04T11:16:21.552Z,978.06
2017-02-04T11:17:32.224Z,978.11
2017-02-04T11:18:42.501Z,978.09
2017-02-04T11:19:52.778Z,978.13
2017-02-04T11:21:03.056Z,978.12
2017-02-04T11:22:13.733Z,978.1
2017-02-04T11:23:24.007Z,978.09
2017-02-04T11:24:34.681Z,978.05
2017-02-04T11:25:44.564Z,978.05
2017-02-04T11:26:55.246Z,978.03
2017-02-04T11:28:05.924Z,978.05
2017-02-04T11:29:16.599Z,978.05
2017-02-04T11:30:27.277Z,978.08
2017-02-04T11:31:37.951Z,978.04
2017-02-04T11:32:48.622Z,978.04
2017-02-04T11:33:59.299Z,978.06
2017-02-04T11:35:09.975Z,978.03
2017-02-04T11:36:20.645Z,978.09
2017-02-04T11:37:31.319Z,978.08
2017-02-04T11:38:41.200Z,978.13
2017-02-04T11:39:51.875Z,978.2
2017-02-04T11:41:02.548Z,978.1
2017-02-04T11:42:13.223Z,978.14
2017-02-04T11:43:23.891Z,978.11
2017-02-04T11:44:34.562Z,978.09
2017-02-04T11:45:45.230Z,978.11
2017-02-04T11:46:55.920Z,978.1
2017-02-04T11:48:06.587Z,978.13
2017-02-04T11:49:17.260Z,978.15
2017-02-04T11:50:27.936Z,978.14
2017-02-04T11:51:38.624Z,978.1
2017-02-04T11:52:49.302Z,978.14
2017-02-04T11:53:59.976Z,978.14
2017-02-04T11:55:10.252Z,978.17
2017-02-04T11:56:20.931Z,978.13
2017-02-04T11:57:31.605Z,978.13
2017-02-04T11:58:42.277Z,978.1
2017-02-04T11:59:52.553Z,978.08
2017-02-04T12:01:03.227Z,978.07
2017-02-04T12:02:13.904Z,978.05
2017-02-04T12:03:24.579Z,978.02
2017-02-04T12:04:35.252Z,978.05
2017-02-04T12:05:45.928Z,978.06
2017-02-04T12:06:56.602Z,978.08
2017-02-04T12:08:07.277Z,978.11
2017-02-04T12:09:17.959Z,978.08
2017-02-04T12:10:28.628Z,978.1
2017-02-04T12:11:39.307Z,978.1
2017-02-04T12:12:49.977Z,978.17
2017-02-04T12:14:00.651Z,978.14
2017-02-04T12:15:10.931Z,978.11
2017-02-04T12:16:21.211Z,978.09
2017-02-04T12:17:31.885Z,978.08
2017-02-04T12:18:42.562Z,978.08
2017-02-04T12:19:53.231Z,978.06
2017-02-04T12:21:03.905Z,978.14
2017-02-04T12:22:14.583Z,978.08
2017-02-04T12:23:25.260Z,978.06
2017-02-04T12:24:35.932Z,978.09
2017-02-04T12:25:46.707Z,978.1
2017-02-04T12:26:57.373Z,978.03
2017-02-04T12:28:08.049Z,978.06
2017-02-04T12:29:18.322Z,978.1
2017-02-04T12:30:28.991Z,978.09
2017-02-04T12:31:39.671Z,978.1
2017-02-04T12:32:50.345Z,978.1
2017-02-04T12:34:01.022Z,978.13
2017-02-04T12:35:11.696Z,978.08
2017-02-04T12:36:22.373Z,978.09
2017-02-04T12:37:33.049Z,978.08
2017-02-04T12:38:43.725Z,978.09
2017-02-04T12:39:54.392Z,978.11
2017-02-04T12:41:05.062Z,978.1
2017-02-04T12:42:15.735Z,978.11
2017-02-04T12:43:26.409Z,978.12
2017-02-04T12:44:36.685Z,978.09
2017-02-04T12:45:47.359Z,978.1
2017-02-04T12:46:58.029Z,978.05
2017-02-04T12:48:08.710Z,978.03
2017-02-04T12:49:19.380Z,978.05
2017-02-04T12:50:30.054Z,978.05
2017-02-04T12:51:40.732Z,978.06
2017-02-04T12:52:51.409Z,978.07
2017-02-04T12:54:02.088Z,978.08
2017-02-04T12:55:12.762Z,978.08
2017-02-04T12:56:23.439Z,978.08
2017-02-04T12:57:34.109Z,978.08
2017-02-04T12:58:44.792Z,978.04
2017-02-04T12:59:55.468Z,978.07
2017-02-04T13:01:06.147Z,978.03
2017-02-04T13:02:16.821Z,978.09
2017-02-04T13:03:27.096Z,978.04
2017-02-04T13:04:37.372Z,978.06
2017-02-04T13:05:48.051Z,978.01
2017-02-04T13:06:58.726Z,977.99
2017-02-04T13:08:09.004Z,977.96
2017-02-04T13:09:19.688Z,977.94
2017-02-04T13:10:30.369Z,977.97
2017-02-04T13:11:41.099Z,977.94
2017-02-04T13:12:51.380Z,977.91
2017-02-04T13:14:02.051Z,977.89
2017-02-04T13:15:12.722Z,977.9
2017-02-04T13:16:23.000Z,977.84
2017-02-04T13:17:33.673Z,977.82
2017-02-04T13:18:44.350Z,977.8
2017-02-04T13:19:54.624Z,977.81
2017-02-04T13:21:05.299Z,977.86
2017-02-04T13:22:15.974Z,977.82
2017-02-04T13:23:26.649Z,977.82
2017-02-04T13:24:37.325Z,977.79
2017-02-04T13:25:47.996Z,977.78
2017-02-04T13:26:58.672Z,977.78
2017-02-04T13:28:08.949Z,977.75
2017-02-04T13:29:19.625Z,977.73
2017-02-04T13:30:30.304Z,977.69
2017-02-04T13:31:40.984Z,977.72
2017-02-04T13:32:51.657Z,977.71
2017-02-04T13:34:02.336Z,977.77
2017-02-04T13:35:13.010Z,977.77
2017-02-04T13:36:23.293Z,977.76
2017-02-04T13:37:33.577Z,977.75
2017-02-04T13:38:44.251Z,977.79
2017-02-04T13:39:54.530Z,977.78
2017-02-04T13:41:05.203Z,977.78
2017-02-04T13:42:15.877Z,977.8
2017-02-04T13:43:26.558Z,977.76
2017-02-04T13:44:37.233Z,977.75
2017-02-04T13:45:47.924Z,977.72
2017-02-04T13:46:58.601Z,977.74
2017-02-04T13:48:09.272Z,977.71
2017-02-04T13:49:19.942Z,977.71
2017-02-04T13:50:30.614Z,977.67
2017-02-04T13:51:41.288Z,977.73
2017-02-04T13:52:51.965Z,977.74
2017-02-04T13:54:02.646Z,977.72
2017-02-04T13:55:13.324Z,977.76
2017-02-04T13:56:24.002Z,977.75
2017-02-04T13:57:34.672Z,977.74
2017-02-04T13:58:45.351Z,977.74
2017-02-04T13:59:56.030Z,977.72
2017-02-04T14:01:06.703Z,977.74
2017-02-04T14:02:17.382Z,977.72
2017-02-04T14:03:27.653Z,977.72
2017-02-04T14:04:38.327Z,977.71
2017-02-04T14:05:48.999Z,977.72
2017-02-04T14:06:59.679Z,977.71
2017-02-04T14:08:09.954Z,977.76
2017-02-04T14:09:20.232Z,977.78
2017-02-04T14:10:30.900Z,977.76
2017-02-04T14:11:41.625Z,977.78
2017-02-04T14:12:52.307Z,977.79
2017-02-04T14:14:02.977Z,977.8
2017-02-04T14:15:13.654Z,977.83
2017-02-04T14:16:23.929Z,977.84
2017-02-04T14:17:34.604Z,977.83
2017-02-04T14:18:45.273Z,977.86
2017-02-04T14:19:55.951Z,977.88
2017-02-04T14:21:06.701Z,977.89
2017-02-04T14:22:17.383Z,977.93
2017-02-04T14:23:28.067Z,977.97
2017-02-04T14:24:38.346Z,977.98
2017-02-04T14:25:49.021Z,978.01
2017-02-04T14:26:59.693Z,978.03
2017-02-04T14:28:10.372Z,978.01
2017-02-04T14:29:21.048Z,978.05
2017-02-04T14:30:31.729Z,978.05
2017-02-04T14:31:42.407Z,978.05
2017-02-04T14:32:53.077Z,978.1
2017-02-04T14:34:03.746Z,978.12
2017-02-04T14:35:14.015Z,978.1
2017-02-04T14:36:24.692Z,978.1
2017-02-04T14:37:34.967Z,978.1
2017-02-04T14:38:45.645Z,978.1
2017-02-04T14:39:55.923Z,978.11
2017-02-04T14:41:06.198Z,978.16
2017-02-04T14:42:16.471Z,978.1
2017-02-04T14:43:27.146Z,978.11
2017-02-04T14:44:37.417Z,978.16